Time;durP1;ratioP1;P1;durP2;ratioP2;P2;SDS_P1;SDS_P2;PMS_P1;PMS_P2;Temp;Humidity;BMP_temperature;BMP_pressure;BME280_temperature;BME280_humidity;BME280_pressure;Samples;Min_cycle;Max_cycle;Signal;HPM_P1;HPM_P2
2021/03/23 00:00:49;;;;;;;4.82;2.78;;;8.90;78.80;;;;;;5071740;28;20518;-64
2021/03/23 00:03:19;;;;;;;1.83;1.02;;;8.80;78.80;;;;;;5072843;28;20033;-64
2021/03/23 00:05:45;;;;;;;1.30;1.00;;;8.80;78.80;;;;;;5072572;28;20037;-64
2021/03/23 00:08:22;;;;;;;1.23;1.13;;;8.80;79.00;;;;;;5071963;28;20032;-64
2021/03/23 00:10:47;;;;;;;2.40;0.93;;;8.80;79.10;;;;;;5072558;28;20028;-64
2021/03/23 00:13:13;;;;;;;0.98;0.88;;;8.80;79.10;;;;;;5072465;28;20038;-63
2021/03/23 00:15:39;;;;;;;2.00;1.27;;;8.80;79.10;;;;;;5072042;28;20040;-64
2021/03/23 00:18:08;;;;;;;2.10;1.30;;;8.80;79.10;;;;;;5072424;28;20060;-64
2021/03/23 00:20:34;;;;;;;1.35;1.20;;;8.80;79.20;;;;;;5072698;28;20404;-63
2021/03/23 00:23:00;;;;;;;1.55;1.17;;;8.80;79.10;;;;;;5071917;28;20033;-63
2021/03/23 00:25:25;;;;;;;0.47;0.47;;;8.80;79.10;;;;;;5072455;28;20024;-63
2021/03/23 00:27:51;;;;;;;1.25;1.17;;;8.80;79.20;;;;;;5072592;28;20094;-63
2021/03/23 00:30:17;;;;;;;0.85;0.85;;;8.80;79.10;;;;;;5071560;28;20427;-64
2021/03/23 00:32:43;;;;;;;1.10;0.98;;;8.80;79.10;;;;;;5072561;28;20060;-64
2021/03/23 00:35:10;;;;;;;3.70;1.70;;;8.80;79.20;;;;;;5071721;28;20036;-63
2021/03/23 00:37:38;;;;;;;1.05;0.98;;;8.80;79.20;;;;;;5072499;28;20024;-63
2021/03/23 00:40:06;;;;;;;1.75;1.27;;;8.80;79.20;;;;;;5072116;28;20040;-64
2021/03/23 00:42:34;;;;;;;1.50;1.23;;;8.80;79.30;;;;;;5072099;28;20052;-63
2021/03/23 00:44:59;;;;;;;1.80;1.15;;;8.70;79.40;;;;;;5054381;28;20063;-63
2021/03/23 00:47:25;;;;;;;1.23;1.00;;;8.70;79.40;;;;;;5072319;28;20044;-64
2021/03/23 00:49:51;;;;;;;1.60;0.90;;;8.70;79.50;;;;;;5075644;28;20469;-63
2021/03/23 00:52:17;;;;;;;1.75;1.45;;;8.70;79.60;;;;;;5076169;28;20028;-63
2021/03/23 00:54:42;;;;;;;2.28;1.38;;;8.70;79.60;;;;;;5076075;28;20064;-63
2021/03/23 00:57:08;;;;;;;1.15;1.05;;;8.70;79.60;;;;;;5075329;28;20111;-63
2021/03/23 00:59:34;;;;;;;3.38;1.45;;;8.70;79.70;;;;;;5075897;28;20041;-63
2021/03/23 01:01:59;;;;;;;2.13;1.30;;;8.70;79.80;;;;;;5076247;28;20556;-63
2021/03/23 01:04:25;;;;;;;11.70;1.92;;;8.60;79.70;;;;;;5075242;28;20364;-63
2021/03/23 01:06:51;;;;;;;1.63;1.02;;;8.70;79.90;;;;;;5075977;28;20388;-63
2021/03/23 01:09:17;;;;;;;2.75;1.52;;;8.70;80.00;;;;;;5075662;28;20028;-63
2021/03/23 01:11:42;;;;;;;1.50;1.13;;;8.70;80.00;;;;;;5074947;28;20052;-63
2021/03/23 01:14:08;;;;;;;2.72;2.08;;;8.70;80.00;;;;;;5076018;28;20032;-63
2021/03/23 01:16:33;;;;;;;0.50;0.50;;;8.60;80.00;;;;;;5075606;28;20033;-64
2021/03/23 01:19:00;;;;;;;0.55;0.55;;;8.60;80.00;;;;;;5075036;28;20037;-63
2021/03/23 01:21:26;;;;;;;2.70;1.42;;;8.60;80.00;;;;;;5075581;28;20039;-64
2021/03/23 01:23:52;;;;;;;2.90;1.70;;;8.70;80.00;;;;;;5075795;28;20447;-64
2021/03/23 01:26:18;;;;;;;2.08;1.42;;;8.60;80.00;;;;;;5074820;28;20059;-63
2021/03/23 01:28:43;;;;;;;1.80;1.17;;;8.70;80.00;;;;;;5075535;28;20476;-64
2021/03/23 01:31:09;;;;;;;2.58;1.48;;;8.70;80.00;;;;;;5074329;28;20493;-63
2021/03/23 01:33:35;;;;;;;2.63;1.88;;;8.70;80.00;;;;;;5074775;28;20075;-63
2021/03/23 01:36:00;;;;;;;7.00;2.47;;;8.70;80.00;;;;;;5075573;28;20086;-63
2021/03/23 01:38:26;;;;;;;1.75;1.50;;;8.70;80.00;;;;;;5074359;28;20110;-63
2021/03/23 01:40:52;;;;;;;2.55;1.40;;;8.70;80.00;;;;;;5075178;28;20076;-63
2021/03/23 01:43:31;;;;;;;7.97;1.77;;;8.70;79.90;;;;;;5075692;28;20060;-63
2021/03/23 01:45:58;;;;;;;3.08;1.85;;;8.70;79.90;;;;;;5074917;28;20056;-63
2021/03/23 01:48:33;;;;;;;2.97;1.67;;;8.70;79.90;;;;;;5075375;28;20047;-63
2021/03/23 01:51:04;;;;;;;2.58;1.67;;;8.80;79.90;;;;;;5075327;28;20364;-64
2021/03/23 01:53:38;;;;;;;3.92;2.25;;;8.80;79.90;;;;;;5074286;28;20486;-63
2021/03/23 01:56:08;;;;;;;8.73;3.20;;;8.80;80.30;;;;;;5072908;28;20025;-65
2021/03/23 01:58:38;;;;;;;4.22;2.38;;;8.80;79.60;;;;;;5074315;28;20048;-63
2021/03/23 02:01:05;;;;;;;4.93;2.15;;;8.80;79.60;;;;;;5066607;28;20032;-65
2021/03/23 02:03:30;;;;;;;6.15;2.58;;;8.80;79.60;;;;;;5064577;28;20048;-63
2021/03/23 02:05:59;;;;;;;7.43;1.75;;;8.90;79.60;;;;;;5065365;28;20518;-63
2021/03/23 02:08:25;;;;;;;4.28;2.10;;;8.90;79.50;;;;;;5064065;28;20480;-63
2021/03/23 02:10:53;;;;;;;0.98;0.70;;;8.90;79.50;;;;;;5070573;28;20058;-63
2021/03/23 02:13:20;;;;;;;2.00;1.55;;;8.90;79.50;;;;;;5074635;28;20459;-64
2021/03/23 02:15:46;;;;;;;4.07;1.58;;;8.90;79.30;;;;;;5073987;28;20035;-63
2021/03/23 02:18:22;;;;;;;2.38;1.40;;;8.80;79.20;;;;;;5074416;28;20452;-63
2021/03/23 02:21:01;;;;;;;9.15;1.70;;;8.80;79.30;;;;;;5072478;28;20048;-63
2021/03/23 02:23:37;;;;;;;2.13;1.30;;;8.80;79.20;;;;;;5074544;28;20028;-63
2021/03/23 02:26:05;;;;;;;2.78;1.48;;;8.80;79.30;;;;;;5074861;28;20032;-63
2021/03/23 02:28:40;;;;;;;7.43;1.85;;;8.80;79.30;;;;;;5073624;28;20099;-63
2021/03/23 02:31:06;;;;;;;3.05;1.10;;;8.70;79.40;;;;;;5074650;28;20028;-63
2021/03/23 02:33:32;;;;;;;4.50;1.42;;;8.80;79.40;;;;;;5074184;28;20036;-63
2021/03/23 02:35:57;;;;;;;7.32;2.60;;;8.70;79.40;;;;;;5073585;28;20028;-63
2021/03/23 02:38:23;;;;;;;2.45;1.55;;;8.80;79.50;;;;;;5072870;28;20032;-63
2021/03/23 02:40:49;;;;;;;1.95;1.70;;;8.70;79.40;;;;;;5074179;28;20037;-63
2021/03/23 02:43:15;;;;;;;7.43;2.58;;;8.70;79.40;;;;;;5073449;28;20052;-63
2021/03/23 02:45:47;;;;;;;3.88;1.63;;;8.70;79.40;;;;;;5074223;28;20032;-63
2021/03/23 02:48:13;;;;;;;4.50;2.78;;;8.70;79.40;;;;;;5074067;28;20033;-63
2021/03/23 02:50:39;;;;;;;4.63;2.38;;;8.70;79.40;;;;;;5073340;28;20074;-63
2021/03/23 02:53:04;;;;;;;3.75;1.75;;;8.70;79.30;;;;;;5074342;28;20034;-63
2021/03/23 02:55:30;;;;;;;0.90;0.70;;;8.70;79.40;;;;;;5073617;28;20094;-63
2021/03/23 02:57:56;;;;;;;1.92;1.65;;;8.60;79.30;;;;;;5073474;28;20025;-63
2021/03/23 03:00:23;;;;;;;5.05;3.17;;;8.60;79.30;;;;;;5073515;28;20044;-63
2021/03/23 03:02:49;;;;;;;2.58;1.85;;;8.60;79.40;;;;;;5073081;28;20067;-63
2021/03/23 03:05:14;;;;;;;3.60;1.83;;;8.50;79.70;;;;;;5073933;28;20487;-63
2021/03/23 03:07:40;;;;;;;3.53;2.30;;;8.50;79.40;;;;;;5071082;28;20032;-63
2021/03/23 03:10:07;;;;;;;7.57;2.55;;;8.50;79.50;;;;;;5064945;28;20913;-63
2021/03/23 03:12:33;;;;;;;8.82;2.35;;;8.50;79.50;;;;;;5072909;28;20085;-63
2021/03/23 03:14:59;;;;;;;2.50;2.17;;;8.40;79.50;;;;;;5073636;28;20032;-63
2021/03/23 03:17:24;;;;;;;3.47;1.98;;;8.40;79.60;;;;;;5066278;28;20029;-63
2021/03/23 03:19:50;;;;;;;5.45;2.33;;;8.40;79.60;;;;;;5064734;28;20040;-63
2021/03/23 03:22:16;;;;;;;1.90;1.42;;;8.40;79.60;;;;;;5073315;28;20024;-63
2021/03/23 03:24:41;;;;;;;11.90;1.98;;;8.30;79.70;;;;;;5072786;28;20565;-63
2021/03/23 03:27:07;;;;;;;8.60;2.97;;;8.30;79.70;;;;;;5058783;28;20385;-63
2021/03/23 03:29:33;;;;;;;6.18;3.13;;;8.30;79.60;;;;;;5073513;28;20048;-63
2021/03/23 03:31:59;;;;;;;2.95;2.05;;;8.30;79.70;;;;;;5072351;28;20052;-63
2021/03/23 03:34:24;;;;;;;6.43;3.72;;;8.30;79.70;;;;;;5073249;28;20017;-63
2021/03/23 03:36:50;;;;;;;5.38;2.28;;;8.20;79.70;;;;;;5073229;28;20028;-63
2021/03/23 03:39:16;;;;;;;6.07;2.97;;;8.20;79.80;;;;;;5072154;28;20398;-63
2021/03/23 03:41:41;;;;;;;4.60;2.58;;;8.20;79.80;;;;;;5073055;28;20024;-63
2021/03/23 03:44:07;;;;;;;9.27;3.35;;;8.20;79.80;;;;;;5058815;28;20036;-63
2021/03/23 03:46:33;;;;;;;4.70;2.15;;;8.20;79.80;;;;;;5072397;28;20032;-63
2021/03/23 03:48:59;;;;;;;6.65;2.38;;;8.30;79.90;;;;;;5073130;28;20028;-63
2021/03/23 03:51:24;;;;;;;8.30;3.55;;;8.30;79.90;;;;;;5072900;28;20078;-63
2021/03/23 03:53:50;;;;;;;14.52;4.70;;;8.30;79.90;;;;;;5072251;28;20029;-63
2021/03/23 03:56:18;;;;;;;15.88;4.05;;;8.40;79.90;;;;;;5072683;28;20499;-63
2021/03/23 03:58:44;;;;;;;12.13;4.15;;;8.40;80.00;;;;;;5072819;28;20438;-63
2021/03/23 04:01:09;;;;;;;10.05;2.75;;;8.40;79.70;;;;;;5071988;28;20037;-63
2021/03/23 04:03:35;;;;;;;6.35;3.03;;;8.40;79.70;;;;;;5073084;28;20055;-63
2021/03/23 04:06:01;;;;;;;1.77;1.13;;;8.40;79.70;;;;;;5072604;28;20078;-68
2021/03/23 04:08:31;;;;;;;4.57;2.60;;;8.40;79.60;;;;;;5072079;28;20119;-63
2021/03/23 04:11:02;;;;;;;2.63;1.60;;;8.50;79.70;;;;;;5072591;28;20044;-63
2021/03/23 04:13:28;;;;;;;8.25;3.03;;;8.40;79.60;;;;;;5070684;28;20533;-63
2021/03/23 04:15:54;;;;;;;2.95;1.70;;;8.40;79.60;;;;;;5072619;28;20036;-63
2021/03/23 04:18:24;;;;;;;4.80;2.33;;;8.40;79.60;;;;;;5058236;28;20029;-63
2021/03/23 04:20:51;;;;;;;7.88;3.65;;;8.40;79.60;;;;;;5071851;28;20507;-63
2021/03/23 04:23:35;;;;;;;6.40;2.47;;;8.40;79.60;;;;;;5071752;28;20439;-63
2021/03/23 04:26:02;;;;;;;7.03;2.15;;;8.40;79.70;;;;;;5072827;28;20075;-63
2021/03/23 04:28:28;;;;;;;7.60;2.10;;;8.40;79.60;;;;;;5071818;28;20140;-64
2021/03/23 04:30:54;;;;;;;1.58;1.38;;;8.40;79.70;;;;;;5072554;28;20515;-63
2021/03/23 04:33:22;;;;;;;1.48;1.35;;;8.40;79.90;;;;;;5072710;28;20029;-63
2021/03/23 04:35:58;;;;;;;3.80;2.25;;;8.40;80.00;;;;;;5071783;28;20032;-63
2021/03/23 04:38:30;;;;;;;8.02;2.47;;;8.30;80.10;;;;;;5072746;28;20033;-63
2021/03/23 04:40:58;;;;;;;2.17;1.13;;;8.30;80.20;;;;;;5072319;28;20047;-63
2021/03/23 04:43:33;;;;;;;4.25;1.67;;;8.30;80.30;;;;;;5071732;28;20036;-63
2021/03/23 04:45:59;;;;;;;5.28;2.25;;;8.30;80.40;;;;;;5072262;28;20089;-63
2021/03/23 04:48:26;;;;;;;6.50;3.30;;;8.30;80.50;;;;;;5071564;28;20074;-63
2021/03/23 04:50:52;;;;;;;9.50;2.40;;;8.20;80.60;;;;;;5072143;28;20074;-63
2021/03/23 04:53:30;;;;;;;3.10;1.27;;;8.20;80.70;;;;;;5072437;28;20051;-63
2021/03/23 04:55:56;;;;;;;12.52;4.70;;;8.20;80.90;;;;;;5071409;28;20035;-63
2021/03/23 04:58:24;;;;;;;8.15;3.03;;;8.20;81.00;;;;;;5071301;28;20041;-63
2021/03/23 05:00:50;;;;;;;7.35;2.67;;;8.20;81.00;;;;;;5071929;28;20032;-63
2021/03/23 05:03:19;;;;;;;7.40;2.65;;;8.30;81.10;;;;;;5071483;28;20480;-63
2021/03/23 05:05:45;;;;;;;4.72;2.33;;;8.20;81.00;;;;;;5072234;28;20039;-63
2021/03/23 05:08:11;;;;;;;15.00;3.28;;;8.20;81.00;;;;;;5072388;28;20387;-64
2021/03/23 05:10:37;;;;;;;10.98;3.42;;;8.20;81.00;;;;;;5071392;28;20123;-63
2021/03/23 05:13:03;;;;;;;4.55;3.45;;;8.20;81.10;;;;;;5071798;28;20475;-63
2021/03/23 05:15:29;;;;;;;4.55;2.47;;;8.20;81.10;;;;;;5071756;28;20142;-63
2021/03/23 05:17:55;;;;;;;23.52;7.93;;;8.20;81.20;;;;;;5058339;28;20025;-63
2021/03/23 05:20:21;;;;;;;9.70;5.25;;;8.20;81.40;;;;;;5071051;28;20043;-63
2021/03/23 05:22:47;;;;;;;19.85;7.53;;;8.20;81.60;;;;;;5071781;28;20062;-63
2021/03/23 05:25:14;;;;;;;7.90;4.55;;;8.10;81.80;;;;;;5068945;28;20142;-63
2021/03/23 05:27:39;;;;;;;10.60;5.82;;;8.10;82.00;;;;;;5060775;28;20024;-63
2021/03/23 05:30:07;;;;;;;21.25;9.05;;;8.00;82.10;;;;;;5061239;28;20128;-63
2021/03/23 05:32:33;;;;;;;8.88;5.55;;;8.00;82.30;;;;;;5065843;28;20025;-63
2021/03/23 05:34:59;;;;;;;21.38;7.65;;;8.00;82.50;;;;;;5062453;28;20028;-64
2021/03/23 05:37:24;;;;;;;21.08;9.57;;;7.90;82.70;;;;;;5069619;28;20029;-63
2021/03/23 05:39:50;;;;;;;14.73;7.15;;;8.00;82.90;;;;;;5066252;28;20063;-63
2021/03/23 05:42:27;;;;;;;13.30;4.75;;;8.00;83.00;;;;;;5067322;28;20067;-63
2021/03/23 05:45:04;;;;;;;14.75;6.35;;;7.90;83.10;;;;;;5066867;28;20404;-63
2021/03/23 05:47:37;;;;;;;15.77;6.03;;;8.00;83.20;;;;;;5072560;28;20032;-63
2021/03/23 05:50:14;;;;;;;29.45;8.52;;;8.00;83.30;;;;;;5066919;28;20095;-63
2021/03/23 05:52:51;;;;;;;15.02;6.57;;;7.90;83.30;;;;;;5066826;28;20131;-63
2021/03/23 05:55:29;;;;;;;21.30;9.38;;;8.00;83.40;;;;;;5065472;28;20461;-63
2021/03/23 05:57:55;;;;;;;11.55;6.18;;;7.90;83.30;;;;;;5061354;28;20090;-63
2021/03/23 06:00:32;;;;;;;24.13;10.73;;;7.90;83.30;;;;;;5064627;28;20091;-64
2021/03/23 06:03:17;;;;;;;15.60;7.75;;;8.00;83.40;;;;;;5069479;28;20036;-63
2021/03/23 06:06:09;;;;;;;13.70;5.45;;;8.00;83.50;;;;;;5068486;28;20476;-63
2021/03/23 06:08:37;;;;;;;20.33;8.63;;;8.00;83.50;;;;;;5065683;28;20043;-63
2021/03/23 06:11:37;;;;;;;10.73;5.40;;;7.90;83.40;;;;;;5067208;28;20112;-63
2021/03/23 06:14:16;;;;;;;27.77;10.57;;;7.90;83.40;;;;;;5069715;28;20048;-63
2021/03/23 06:17:21;;;;;;;23.42;10.23;;;8.00;83.50;;;;;;5059336;28;20029;-63
2021/03/23 06:20:16;;;;;;;19.35;8.43;;;7.90;83.60;;;;;;5050481;28;20040;-64
2021/03/23 06:23:20;;;;;;;17.35;8.02;;;7.90;83.70;;;;;;5074284;28;20064;-63
2021/03/23 06:25:51;;;;;;;7.43;4.50;;;7.90;83.90;;;;;;5073075;28;20052;-63
2021/03/23 06:28:55;;;;;;;14.70;7.40;;;7.90;83.90;;;;;;5071357;28;20029;-63
2021/03/23 06:31:45;;;;;;;10.27;5.57;;;7.90;84.00;;;;;;5072835;28;20016;-64
2021/03/23 06:34:21;;;;;;;19.90;8.00;;;7.90;84.00;;;;;;5070777;28;20069;-63
2021/03/23 06:36:49;;;;;;;12.15;6.38;;;7.90;83.90;;;;;;5072931;28;20093;-63
2021/03/23 06:39:15;;;;;;;11.93;6.70;;;7.90;84.00;;;;;;5072790;28;20384;-64
2021/03/23 06:41:54;;;;;;;21.25;5.60;;;7.90;84.60;;;;;;5071808;28;20057;-63
2021/03/23 06:44:32;;;;;;;17.92;8.10;;;7.90;84.00;;;;;;5072659;28;20037;-63
2021/03/23 06:46:59;;;;;;;17.80;8.40;;;7.90;83.90;;;;;;5072540;28;20074;-68
2021/03/23 06:49:32;;;;;;;5.07;4.15;;;8.00;83.80;;;;;;5066133;28;20056;-65
2021/03/23 06:52:21;;;;;;;19.95;8.50;;;8.00;83.70;;;;;;5065865;28;20032;-63
2021/03/23 06:55:19;;;;;;;19.55;9.43;;;8.00;83.70;;;;;;5070269;28;20127;-63
2021/03/23 06:57:45;;;;;;;16.42;8.10;;;8.00;83.70;;;;;;5071682;28;20104;-64
2021/03/23 07:00:14;;;;;;;15.52;8.60;;;8.00;83.70;;;;;;5068106;28;20480;-64
2021/03/23 07:02:40;;;;;;;26.00;12.07;;;8.00;83.80;;;;;;5069772;28;20056;-64
2021/03/23 07:05:23;;;;;;;18.60;9.52;;;8.00;83.90;;;;;;5073459;28;20048;-64
2021/03/23 07:07:54;;;;;;;24.52;9.93;;;8.10;84.00;;;;;;5059044;28;20021;-64
2021/03/23 07:10:23;;;;;;;20.02;8.65;;;8.10;83.80;;;;;;5063483;28;20048;-64
2021/03/23 07:12:53;;;;;;;26.20;8.77;;;8.20;83.80;;;;;;5061356;28;20025;-69
2021/03/23 07:15:26;;;;;;;10.48;5.07;;;8.20;83.60;;;;;;5059402;28;20036;-64
2021/03/23 07:17:58;;;;;;;25.47;11.43;;;8.20;83.50;;;;;;5066904;28;20488;-64
2021/03/23 07:20:36;;;;;;;32.92;15.35;;;8.30;83.50;;;;;;5072667;28;20115;-64
2021/03/23 07:23:20;;;;;;;14.07;7.07;;;8.20;83.40;;;;;;5083550;28;20036;-64
2021/03/23 07:25:45;;;;;;;19.98;9.98;;;8.20;83.40;;;;;;5069272;28;20028;-64
2021/03/23 07:28:17;;;;;;;10.23;4.53;;;8.30;83.20;;;;;;5072199;28;20039;-64
2021/03/23 07:30:46;;;;;;;11.60;6.88;;;8.30;83.10;;;;;;5068843;28;20193;-64
2021/03/23 07:33:29;;;;;;;22.75;10.05;;;8.30;83.10;;;;;;5069516;28;20035;-64
2021/03/23 07:35:57;;;;;;;16.80;6.95;;;8.30;83.30;;;;;;5070860;28;20482;-64
2021/03/23 07:38:38;;;;;;;6.68;3.20;;;8.30;83.30;;;;;;5071491;28;20074;-64
2021/03/23 07:41:09;;;;;;;11.35;6.72;;;8.30;83.40;;;;;;5071235;28;20384;-64
2021/03/23 07:43:47;;;;;;;9.68;4.78;;;8.30;83.50;;;;;;5068954;28;20039;-64
2021/03/23 07:46:36;;;;;;;14.80;7.63;;;8.30;83.50;;;;;;5070869;28;20380;-64
2021/03/23 07:49:04;;;;;;;21.45;9.10;;;8.30;83.60;;;;;;5069315;28;20032;-68
2021/03/23 07:51:41;;;;;;;15.63;6.70;;;8.30;83.60;;;;;;5067238;28;20033;-75
2021/03/23 07:54:22;;;;;;;8.85;5.03;;;8.30;83.70;;;;;;5066860;28;20028;-63
2021/03/23 07:56:55;;;;;;;12.60;5.90;;;8.30;83.70;;;;;;5065995;28;20424;-62
2021/03/23 07:59:39;;;;;;;16.15;6.18;;;8.40;83.80;;;;;;5068128;28;20044;-63
2021/03/23 08:02:32;;;;;;;16.08;6.22;;;8.30;83.80;;;;;;5061056;28;20043;-64
2021/03/23 08:05:26;;;;;;;17.97;8.10;;;8.40;83.80;;;;;;5066615;28;20020;-64
2021/03/23 08:08:13;;;;;;;21.05;6.60;;;8.40;83.90;;;;;;5066631;28;20036;-64
2021/03/23 08:11:06;;;;;;;17.40;8.27;;;8.40;83.90;;;;;;5071270;28;20037;-63
2021/03/23 08:13:44;;;;;;;10.55;5.30;;;8.40;83.90;;;;;;5068192;28;20059;-64
2021/03/23 08:16:32;;;;;;;20.23;9.65;;;8.40;84.00;;;;;;5070611;28;20374;-64
2021/03/23 08:19:15;;;;;;;23.08;11.27;;;8.40;84.10;;;;;;5072368;28;20101;-64
2021/03/23 08:22:13;;;;;;;14.07;6.75;;;8.40;84.10;;;;;;5065585;28;20492;-64
2021/03/23 08:24:42;;;;;;;17.20;7.05;;;8.40;84.20;;;;;;5066809;28;20483;-65
2021/03/23 08:27:30;;;;;;;14.27;6.88;;;8.40;84.30;;;;;;5069652;28;20063;-65
2021/03/23 08:30:33;;;;;;;21.05;11.02;;;8.50;84.50;;;;;;5056050;28;20029;-65
2021/03/23 08:33:30;;;;;;;21.55;11.13;;;8.40;84.60;;;;;;5001466;28;20046;-65
2021/03/23 08:36:27;;;;;;;27.00;10.68;;;8.40;84.70;;;;;;5055958;28;20035;-66
2021/03/23 08:39:01;;;;;;;17.55;8.20;;;8.40;84.80;;;;;;5061641;28;20033;-64
2021/03/23 08:41:38;;;;;;;21.85;10.45;;;8.40;84.90;;;;;;5062886;28;20072;-64
2021/03/23 08:44:06;;;;;;;22.05;11.35;;;8.40;85.10;;;;;;5059246;28;20021;-65
2021/03/23 08:46:35;;;;;;;24.50;11.30;;;8.40;85.10;;;;;;5067755;28;20032;-69
2021/03/23 08:49:05;;;;;;;18.17;8.02;;;8.40;85.30;;;;;;5067786;28;20029;-64
2021/03/23 08:51:38;;;;;;;18.50;7.50;;;8.40;85.40;;;;;;5067199;28;20028;-64
2021/03/23 08:54:04;;;;;;;15.18;6.20;;;8.40;85.50;;;;;;5070286;28;20032;-64
2021/03/23 08:56:42;;;;;;;21.30;9.90;;;8.40;85.50;;;;;;5069351;28;20028;-65
2021/03/23 08:59:31;;;;;;;13.95;7.80;;;8.50;85.70;;;;;;5070177;28;20044;-64
2021/03/23 09:01:58;;;;;;;22.20;11.25;;;8.50;85.70;;;;;;5063455;28;20214;-65
2021/03/23 09:04:30;;;;;;;31.30;13.35;;;8.50;85.70;;;;;;5071307;28;20028;-65
2021/03/23 09:07:07;;;;;;;20.45;9.63;;;8.50;85.80;;;;;;5072118;28;20039;-65
2021/03/23 09:09:41;;;;;;;12.63;6.63;;;8.50;85.90;;;;;;5073008;28;20040;-65
2021/03/23 09:12:12;;;;;;;;;;;8.50;85.90;;;;;;5072283;28;20040;-64
2021/03/23 09:15:03;;;;;;;22.23;11.00;;;8.50;85.90;;;;;;5073313;28;19912;-64
2021/03/23 09:18:04;;;;;;;21.42;7.57;;;8.60;85.90;;;;;;5068431;28;20107;-64
2021/03/23 09:20:33;;;;;;;19.60;9.13;;;8.60;86.00;;;;;;5067555;28;20040;-64
2021/03/23 09:23:37;;;;;;;24.40;8.40;;;8.60;86.00;;;;;;5070507;28;20464;-64
2021/03/23 09:26:37;;;;;;;33.72;13.85;;;8.60;86.00;;;;;;5052390;28;20033;-64
2021/03/23 09:29:31;;;;;;;23.83;9.57;;;8.60;85.90;;;;;;5070361;28;20024;-67
2021/03/23 09:32:08;;;;;;;15.57;6.72;;;8.60;86.00;;;;;;5072191;28;20037;-65
2021/03/23 09:35:12;;;;;;;28.65;13.35;;;8.60;86.10;;;;;;5071789;28;20033;-65
2021/03/23 09:37:42;;;;;;;23.38;10.77;;;8.70;86.10;;;;;;5068904;28;20107;-65
2021/03/23 09:40:17;;;;;;;12.65;5.07;;;8.70;86.00;;;;;;5077480;28;20098;-65
2021/03/23 09:42:46;;;;;;;13.25;5.72;;;8.70;86.20;;;;;;5069042;28;20078;-65
2021/03/23 09:45:11;;;;;;;20.90;10.05;;;8.70;86.20;;;;;;5062218;28;20107;-65
2021/03/23 09:47:42;;;;;;;12.38;6.80;;;8.80;86.10;;;;;;5069720;28;20428;-65
2021/03/23 09:50:29;;;;;;;27.38;12.20;;;8.80;86.00;;;;;;5067771;28;20063;-65
2021/03/23 09:53:15;;;;;;;31.67;15.48;;;8.90;85.90;;;;;;5071756;28;20032;-65
2021/03/23 09:55:41;;;;;;;32.10;12.50;;;8.90;85.60;;;;;;5077434;28;20124;-65
2021/03/23 09:58:13;;;;;;;21.27;9.82;;;9.00;85.40;;;;;;5072038;28;20067;-65
2021/03/23 10:00:39;;;;;;;10.55;5.50;;;9.00;85.60;;;;;;5071771;28;20074;-65
2021/03/23 10:03:34;;;;;;;27.45;10.30;;;9.10;85.60;;;;;;5073100;28;20028;-65
2021/03/23 10:06:07;;;;;;;17.13;7.35;;;9.10;85.50;;;;;;5071129;28;20032;-65
2021/03/23 10:08:34;;;;;;;21.73;12.30;;;9.20;85.50;;;;;;5073310;28;20086;-65
2021/03/23 10:11:28;;;;;;;16.92;7.50;;;9.20;85.60;;;;;;5070649;28;20040;-65
2021/03/23 10:14:01;;;;;;;7.60;4.28;;;9.20;85.60;;;;;;5063762;28;20430;-65
2021/03/23 10:16:34;;;;;;;25.05;12.75;;;9.30;85.60;;;;;;5066327;28;20040;-65
2021/03/23 10:19:18;;;;;;;27.83;11.45;;;9.30;85.60;;;;;;5068405;28;20040;-65
2021/03/23 10:21:52;;;;;;;23.73;11.77;;;9.30;85.40;;;;;;5081207;28;20043;-65
2021/03/23 10:24:23;;;;;;;22.23;11.52;;;9.30;85.50;;;;;;5089851;28;20024;-65
2021/03/23 10:26:51;;;;;;;15.10;6.65;;;9.30;85.50;;;;;;5068813;28;20414;-65
2021/03/23 10:29:25;;;;;;;15.57;7.35;;;9.40;85.60;;;;;;5063382;28;20051;-65
2021/03/23 10:31:53;;;;;;;18.40;7.63;;;9.40;85.50;;;;;;5055806;28;20499;-65
2021/03/23 10:34:25;;;;;;;12.10;6.55;;;9.40;85.40;;;;;;5062955;28;20549;-66
2021/03/23 10:36:55;;;;;;;27.50;13.52;;;9.50;85.40;;;;;;5057651;28;20460;-66
2021/03/23 10:39:42;;;;;;;23.17;11.43;;;9.50;85.20;;;;;;5066999;28;20082;-65
2021/03/23 10:42:23;;;;;;;21.05;9.88;;;9.60;85.20;;;;;;5071444;28;20043;-65
2021/03/23 10:45:09;;;;;;;21.05;9.82;;;9.60;85.20;;;;;;5075149;28;20036;-65
2021/03/23 10:47:38;;;;;;;26.65;11.98;;;9.60;85.20;;;;;;5071399;28;20384;-67
2021/03/23 10:50:35;;;;;;;20.83;10.23;;;9.60;85.10;;;;;;5073980;28;20148;-66
2021/03/23 10:53:09;;;;;;;19.35;8.98;;;9.60;85.20;;;;;;5064228;28;20048;-64
2021/03/23 10:55:39;;;;;;;14.07;7.15;;;9.60;85.30;;;;;;5060272;28;20032;-66
2021/03/23 10:58:27;;;;;;;19.00;9.50;;;9.60;85.40;;;;;;5073570;28;20025;-66
2021/03/23 11:01:15;;;;;;;23.35;10.75;;;9.60;85.40;;;;;;5062331;28;20391;-66
2021/03/23 11:03:46;;;;;;;15.00;7.55;;;9.70;85.50;;;;;;5049035;28;20079;-66
2021/03/23 11:06:29;;;;;;;22.23;8.82;;;9.70;85.50;;;;;;5073177;28;20025;-65
2021/03/23 11:08:54;;;;;;;24.13;7.75;;;9.80;85.60;;;;;;5060929;28;20029;-65
2021/03/23 11:11:20;;;;;;;15.07;7.20;;;9.80;85.50;;;;;;5062629;28;20021;-67
2021/03/23 11:13:46;;;;;;;10.60;5.45;;;9.80;85.40;;;;;;5067628;28;20433;-64
2021/03/23 11:16:18;;;;;;;20.58;7.18;;;9.90;85.40;;;;;;5063411;28;20467;-67
2021/03/23 11:18:46;;;;;;;19.95;10.60;;;9.90;85.40;;;;;;5063941;28;20028;-64
2021/03/23 11:21:16;;;;;;;15.80;8.15;;;10.00;85.20;;;;;;5068538;28;20123;-65
2021/03/23 11:23:46;;;;;;;9.85;5.80;;;10.10;85.00;;;;;;5064713;28;20150;-66
2021/03/23 11:26:19;;;;;;;29.85;15.20;;;10.10;85.00;;;;;;5062792;28;20031;-65
2021/03/23 11:28:46;;;;;;;20.23;8.52;;;10.10;84.50;;;;;;5066121;28;20031;-65
2021/03/23 11:31:16;;;;;;;10.57;5.18;;;10.20;84.10;;;;;;5061509;28;20044;-66
2021/03/23 11:33:42;;;;;;;20.55;10.40;;;10.30;84.50;;;;;;5056753;28;20036;-66
2021/03/23 11:36:09;;;;;;;17.50;7.68;;;10.40;84.60;;;;;;5069409;28;20032;-67
2021/03/23 11:38:35;;;;;;;29.75;17.52;;;10.40;84.90;;;;;;5072292;28;20114;-67
2021/03/23 11:41:04;;;;;;;30.00;15.75;;;10.40;84.00;;;;;;5072944;28;20079;-68
2021/03/23 11:43:50;;;;;;;33.63;13.05;;;10.50;84.10;;;;;;5071614;28;20365;-67
2021/03/23 11:46:34;;;;;;;20.65;9.35;;;10.60;83.40;;;;;;5072246;28;20718;-66
2021/03/23 11:49:08;;;;;;;26.13;11.82;;;10.70;84.30;;;;;;5059294;28;20068;-66
2021/03/23 11:51:37;;;;;;;10.70;6.20;;;10.70;84.10;;;;;;5063535;28;20387;-66
2021/03/23 11:54:05;;;;;;;20.35;9.82;;;10.80;84.50;;;;;;5068634;28;20052;-66
2021/03/23 11:56:31;;;;;;;26.45;15.88;;;10.80;83.70;;;;;;5072289;28;20408;-69
2021/03/23 11:58:57;;;;;;;10.48;4.28;;;10.90;83.70;;;;;;5065592;28;20040;-67
2021/03/23 12:01:25;;;;;;;19.05;8.98;;;10.90;84.20;;;;;;5071760;28;20041;-67
2021/03/23 12:03:52;;;;;;;16.10;6.90;;;11.00;84.10;;;;;;5064712;28;20194;-66
2021/03/23 12:06:28;;;;;;;16.85;8.05;;;11.00;84.30;;;;;;5067590;28;20132;-66
2021/03/23 12:09:00;;;;;;;19.85;9.60;;;11.10;84.20;;;;;;5055874;28;20036;-66
2021/03/23 12:11:37;;;;;;;22.23;11.38;;;11.10;84.20;;;;;;5065936;28;20024;-67
2021/03/23 12:14:16;;;;;;;13.32;7.13;;;11.10;83.90;;;;;;5067178;28;20127;-65
2021/03/23 12:17:02;;;;;;;11.82;5.90;;;11.20;84.10;;;;;;5064710;28;20037;-66
2021/03/23 12:19:36;;;;;;;22.83;11.18;;;11.20;84.00;;;;;;5059856;28;20079;-66
2021/03/23 12:22:05;;;;;;;23.30;11.55;;;11.20;84.00;;;;;;5068960;28;20035;-66
2021/03/23 12:24:31;;;;;;;22.83;10.70;;;11.20;84.00;;;;;;5070257;28;20029;-66
2021/03/23 12:26:57;;;;;;;21.75;10.82;;;11.30;84.00;;;;;;5070102;28;20078;-66
2021/03/23 12:29:22;;;;;;;18.77;10.30;;;11.30;84.10;;;;;;5070434;28;20033;-65
2021/03/23 12:31:49;;;;;;;26.70;10.60;;;11.30;84.10;;;;;;5071491;28;20033;-66
2021/03/23 12:34:15;;;;;;;21.38;8.30;;;11.40;84.00;;;;;;5070068;28;20293;-66
2021/03/23 12:36:42;;;;;;;20.58;10.50;;;11.40;84.10;;;;;;5071329;28;20044;-66
2021/03/23 12:39:09;;;;;;;17.13;8.45;;;11.50;84.10;;;;;;5070563;28;20025;-66
2021/03/23 12:41:37;;;;;;;36.53;20.63;;;11.60;83.90;;;;;;5070019;28;20496;-65
2021/03/23 12:44:04;;;;;;;30.70;17.42;;;11.60;82.80;;;;;;5072275;28;20024;-66
2021/03/23 12:46:31;;;;;;;25.40;14.25;;;11.70;83.30;;;;;;5075596;28;20107;-66
2021/03/23 12:48:58;;;;;;;28.50;10.75;;;11.70;82.40;;;;;;5089469;28;20035;-66
2021/03/23 12:51:35;;;;;;;22.88;10.90;;;11.80;83.40;;;;;;5075583;28;20044;-66
2021/03/23 12:54:01;;;;;;;12.48;5.75;;;11.90;84.00;;;;;;5073878;28;20550;-66
2021/03/23 12:56:27;;;;;;;21.13;7.15;;;11.90;83.80;;;;;;5074642;28;20028;-66
2021/03/23 12:58:53;;;;;;;13.68;6.90;;;12.00;84.00;;;;;;5074515;28;20048;-66
2021/03/23 13:01:20;;;;;;;20.67;10.43;;;12.00;84.10;;;;;;5073413;28;20052;-66
2021/03/23 13:03:46;;;;;;;10.68;6.63;;;12.00;84.10;;;;;;5075057;28;20099;-67
2021/03/23 13:06:14;;;;;;;22.08;9.23;;;12.00;83.90;;;;;;5073990;28;20036;-66
2021/03/23 13:08:40;;;;;;;15.13;7.25;;;12.10;83.90;;;;;;5073807;28;20040;-66
2021/03/23 13:11:14;;;;;;;16.38;8.00;;;12.10;83.60;;;;;;5074733;28;20058;-66
2021/03/23 13:13:51;;;;;;;21.50;8.77;;;12.20;83.90;;;;;;5074836;28;20534;-66